M I D A S
Marine Information and Data Acquisition System
Tripno 454 of the Zeeleeuw from 2003-03-24 07:33:44 to 2003-03-24 16:04:33
Back to CruiseResearch ActivitiesStationsMapUnderway DataData graphs

EquipmentUnitsComment
TimeDGPSUTC
LatitudeDGPSDM.mWGS84
LongitudeDGPSDM.mWGS84
TemperatureSBE03/SBE38deg celciusITS90
ConductivitySBE21S/mITS90
SalinitySBE21 Practical Salinity Units
ChlorophylAChelsea fluorimeterg/lCalibrated in Aceton
Missing or incorrect values are displayed as -999
Sea surface data collected by the RV Zeeleeuw from 2003-03-24 07:33:44 to 2003-03-24 16:04:33
Time Latitude Longitude Temperature Conductivity Salinity ChlorophylA
2003-03-24 07:34:47 51°13.598 2°56.105 13.971678 3.455812 21.911323 -0.848668
2003-03-24 07:35:47 51°13.599 2°56.094 13.98643 3.455496 21.913602 -0.848668
2003-03-24 07:36:47 51°13.616 2°56.023 13.967393 3.455286 21.9163 -0.814958
2003-03-24 07:37:48 51°13.63 2°55.978 13.985458 3.454864 21.913668 -0.882377
2003-03-24 07:38:48 51°13.667 2°55.874 13.982455 3.454654 21.914761 -0.848668
2003-03-24 07:39:47 51°13.692 2°55.765 13.984089 3.454127 21.913318 -0.814958
2003-03-24 07:40:47 51°13.702 2°55.73 -999 3.453811 21.913672 -0.848668
2003-03-24 07:41:47 51°13.741 2°55.717 -999 3.453284 21.912871 -0.848668
2003-03-24 07:42:47 51°13.802 2°55.662 -999 3.452968 21.912584 -0.848668
2003-03-24 07:43:47 51°13.898 2°55.584 -999 3.452652 21.91326 -0.848668
2003-03-24 07:44:47 51°14.012 2°55.504 -999 3.452336 21.913294 -0.848668
2003-03-24 07:45:47 51°14.127 2°55.419 -999 3.451915 21.912589 -0.848668
2003-03-24 07:46:47 51°14.25 2°55.277 -999 3.451494 21.912205 -0.848668
2003-03-24 07:47:47 51°14.36 2°55.075 -999 3.451283 21.9133 -0.848668
2003-03-24 07:48:47 51°14.49 2°54.873 -999 3.450862 21.911952 -0.882377
2003-03-24 07:49:47 51°14.662 2°54.707 -999 3.450546 21.912951 -0.814958
2003-03-24 07:50:47 51°14.848 2°54.558 -999 3.45023 21.912663 -0.848668
2003-03-24 07:51:47 51°15.04 2°54.406 -999 3.449809 21.912602 -0.814958
2003-03-24 07:52:47 51°15.23 2°54.252 -999 3.449493 21.912958 -0.882377
2003-03-24 07:53:47 51°15.434 2°54.092 -999 3.449177 21.912993 -0.848668
2003-03-24 07:54:47 51°15.644 2°53.921 -999 3.448861 21.913349 -0.814958
2003-03-24 07:55:47 51°15.85 2°53.735 -999 3.448756 21.914863 -0.848668
2003-03-24 07:56:47 51°16.064 2°53.57 -999 3.44844 21.91522 -0.848668
2003-03-24 07:57:47 51°16.279 2°53.409 -999 3.448018 21.914838 -0.814958
2003-03-24 07:58:47 51°16.492 2°53.246 -999 3.447702 21.914551 -0.848668
2003-03-24 07:59:47 51°16.7 2°53.072 -999 3.447281 21.914491 -0.848668
2003-03-24 08:00:47 51°16.904 2°52.89 -999 3.446965 21.914204 -0.848668
2003-03-24 08:01:46 51°17.108 2°52.711 -999 3.446649 21.91424 -0.848668
2003-03-24 08:02:46 51°17.312 2°52.52 -999 3.446333 21.914598 -0.814958
2003-03-24 08:03:46 51°17.497 2°52.284 -999 3.446017 21.914633 -0.848668
2003-03-24 08:04:47 51°17.659 2°52.002 -999 3.445491 21.913189 -0.848668
2003-03-24 08:05:47 51°17.799 2°51.698 -999 3.445175 21.913547 -0.882377
2003-03-24 08:06:47 51°17.936 2°51.387 -999 3.444964 21.914646 -0.848668
2003-03-24 08:07:47 51°18.073 2°51.075 -999 3.444543 21.914264 -0.848668
2003-03-24 08:08:47 51°18.208 2°50.763 -999 3.444227 21.914622 -0.848668
2003-03-24 08:09:46 51°18.339 2°50.453 -999 3.4437 21.914145 -0.848668
2003-03-24 08:10:47 51°18.475 2°50.133 -999 3.44349 21.914922 -0.814958
2003-03-24 08:11:47 51°18.608 2°49.821 -999 3.443068 21.914541 -0.848668
2003-03-24 08:12:47 51°18.741 2°49.508 -999 3.442858 21.915641 -0.848668
2003-03-24 08:13:47 51°18.875 2°49.193 -999 3.442436 21.914292 -0.848668
2003-03-24 08:14:47 51°19.01 2°48.875 -999 3.44212 21.914974 -0.848668
2003-03-24 08:15:47 51°19.146 2°48.556 -999 3.441699 21.914593 -0.848668
2003-03-24 08:16:47 51°19.279 2°48.239 -999 3.441383 21.915276 -0.848668
2003-03-24 08:17:47 51°19.416 2°47.922 -999 3.440962 21.915218 -0.882377
2003-03-24 08:18:47 51°19.555 2°47.607 -999 3.440646 21.915255 -0.848668
2003-03-24 08:19:47 51°19.688 2°47.295 -999 3.44033 21.915615 -0.848668
2003-03-24 08:20:47 51°19.814 2°46.98 -999 3.440014 21.916622 -0.848668
2003-03-24 08:21:48 51°19.941 2°46.655 -999 3.439593 21.916242 -0.814958
2003-03-24 08:22:47 51°20.053 2°46.327 -999 3.439172 21.916185 -0.848668
2003-03-24 08:23:47 51°20.135 2°45.97 -999 3.43875 21.916451 -0.848668
2003-03-24 08:24:47 51°20.197 2°45.603 -999 3.438434 21.916166 -0.882377
2003-03-24 08:25:47 51°20.262 2°45.236 -999 3.438013 21.916109 -0.848668
2003-03-24 08:26:47 51°20.322 2°44.867 -999 3.437697 21.917441 -0.882377
2003-03-24 08:27:47 51°20.371 2°44.501 -999 3.43717 21.916319 -0.848668
2003-03-24 08:28:47 51°20.426 2°44.133 -999 3.43696 21.917423 -0.882377
2003-03-24 08:29:48 51°20.484 2°43.761 -999 3.436539 21.917043 -0.882377
2003-03-24 08:30:47 51°20.537 2°43.4 -999 3.436117 21.916987 -0.882377
2003-03-24 08:31:47 51°20.592 2°43.031 -999 3.435801 21.91735 -0.848668
2003-03-24 08:32:47 51°20.647 2°42.661 -999 3.435275 21.916551 -0.848668
2003-03-24 08:33:47 51°20.704 2°42.288 -999 3.434959 21.916914 -0.814958
2003-03-24 08:34:48 51°20.766 2°41.908 -999 3.434538 21.916859 -0.848668
2003-03-24 08:35:47 51°20.878 2°41.581 -999 3.434222 21.916898 -0.848668
2003-03-24 08:36:48 51°21.106 2°41.487 -999 3.4338 21.917815 -0.814958
2003-03-24 08:37:48 51°21.344 2°41.462 -999 3.433274 21.916369 -0.814958
2003-03-24 08:38:48 51°21.584 2°41.439 -999 3.432958 21.916732 -0.848668
2003-03-24 08:39:47 51°21.82 2°41.422 -999 3.432536 21.916029 -0.848668
2003-03-24 08:40:48 51°22.065 2°41.406 -999 3.432115 21.916299 -0.848668
2003-03-24 08:41:48 51°22.307 2°41.394 -999 3.431799 21.916663 -0.848668
2003-03-24 08:42:48 51°22.525 2°41.536 -999 3.431378 21.916608 -0.848668
2003-03-24 08:43:48 51°22.707 2°41.782 -999 3.430957 21.916229 -0.848668
2003-03-24 08:44:48 51°22.886 2°42.047 -999 3.430641 21.915945 -0.848668
2003-03-24 08:45:48 51°23.056 2°42.309 -999 3.430325 21.915661 -0.848668
2003-03-24 08:46:48 51°23.239 2°42.545 -999 3.429903 21.915607 -0.848668
2003-03-24 08:47:47 51°23.458 2°42.67 -999 3.429588 21.915648 -0.848668
2003-03-24 08:48:47 51°23.692 2°42.626 -999 3.429272 21.915688 -0.848668
2003-03-24 08:49:47 51°23.905 2°42.455 -999 3.428956 21.915404 -0.814958
2003-03-24 08:50:48 51°24.117 2°42.265 -999 3.42864 21.916419 -0.848668
2003-03-24 08:51:47 51°24.325 2°42.09 -999 3.428324 21.916785 -0.848668
2003-03-24 08:52:48 51°24.54 2°41.916 -999 3.427902 21.916406 -0.882377
2003-03-24 08:53:48 51°24.752 2°41.756 -999 3.427481 21.915704 -0.848668
2003-03-24 08:54:48 51°24.969 2°41.598 -999 3.427271 21.916814 -0.848668
2003-03-24 08:55:47 51°25.18 2°41.439 -999 3.426849 21.916436 -0.848668
2003-03-24 08:56:47 51°25.396 2°41.277 26.397746 3.426533 21.916802 -0.848668
2003-03-24 08:57:48 51°25.617 2°41.114 28.380761 3.426217 21.917494 -0.848668
2003-03-24 08:58:48 51°25.803 2°40.878 28.798159 3.425901 21.917861 -0.814958
2003-03-24 08:59:48 51°25.954 2°40.586 26.995119 3.42548 21.916833 -0.848668
2003-03-24 09:00:47 51°26.105 2°40.298 25.644152 3.425164 21.91785 -0.848668
2003-03-24 09:01:47 51°26.257 2°40.003 29.250572 3.424743 21.917148 -0.848668
2003-03-24 09:02:48 51°26.413 2°39.706 26.420588 3.424427 21.91784 -0.848668
2003-03-24 09:03:47 51°26.547 2°39.404 27.412248 3.424006 21.917138 -0.848668
2003-03-24 09:04:47 51°26.65 2°39.064 29.009245 3.42369 21.918156 -0.848668
2003-03-24 09:05:48 51°26.755 2°38.721 28.237136 3.423374 21.918524 -0.848668
2003-03-24 09:06:46 51°26.856 2°38.394 27.691089 3.423058 21.918242 -0.848668
2003-03-24 09:07:47 51°26.961 2°38.051 27.818332 3.422637 21.91819 -0.848668
2003-03-24 09:08:48 51°27.07 2°37.708 27.921966 3.422215 21.918465 -0.882377
2003-03-24 09:09:48 51°27.177 2°37.372 26.251828 3.421794 21.917437 -0.848668
2003-03-24 09:10:48 51°27.283 2°37.035 28.895076 3.421584 21.918225 -0.848668
2003-03-24 09:11:48 51°27.39 2°36.696 28.29101 3.421057 21.917429 -0.848668
2003-03-24 09:12:48 51°27.494 2°36.359 27.293563 3.420741 21.917798 -0.848668
2003-03-24 09:13:47 51°27.598 2°36.024 25.694597 3.42032 21.917422 -0.848668
2003-03-24 09:14:48 51°27.702 2°35.68 28.440511 3.420004 21.917791 -0.848668
2003-03-24 09:15:47 51°27.824 2°35.364 27.798097 3.419582 21.917415 -0.882377
2003-03-24 09:16:48 51°27.981 2°35.075 26.487592 3.419161 21.917364 -0.848668
2003-03-24 09:17:48 51°28.164 2°34.842 29.229686 3.418845 21.91806 -0.814958
2003-03-24 09:18:48 51°28.389 2°34.71 29.088678 3.418424 21.917358 -0.848668
2003-03-24 09:19:48 51°28.624 2°34.73 27.528702 3.418003 21.916982 -0.848668
2003-03-24 09:20:48 51°28.831 2°34.915 29.449519 3.417687 21.917678 -0.882377
2003-03-24 09:21:48 51°28.999 2°35.18 26.677876 3.417266 21.916976 -0.848668
2003-03-24 09:22:48 51°29.15 2°35.469 29.30059 3.416739 21.916507 -0.848668
2003-03-24 09:23:48 51°29.282 2°35.778 27.718119 3.416634 21.918044 -0.848668
2003-03-24 09:24:48 51°29.396 2°36.103 26.457224 3.416318 21.918088 -0.848668
2003-03-24 09:25:48 51°29.507 2°36.429 27.650143 3.415896 21.917713 -0.882377
2003-03-24 09:26:47 51°29.609 2°36.75 26.785801 3.415475 21.917011 -0.848668
2003-03-24 09:27:48 51°29.715 2°37.074 26.155899 3.415265 21.917476 -0.848668
2003-03-24 09:28:48 51°29.818 2°37.397 28.064748 3.414949 21.917848 -0.882377
2003-03-24 09:29:48 51°29.92 2°37.722 28.106336 3.414527 21.917146 -0.848668
2003-03-24 09:30:48 51°30.026 2°38.049 27.496532 3.414211 21.917191 -0.848668
2003-03-24 09:31:48 51°30.132 2°38.377 27.770841 3.414001 21.917657 -0.848668
2003-03-24 09:32:48 51°30.212 2°38.643 26.819753 3.41358 21.917608 -0.882377
2003-03-24 09:33:48 51°30.226 2°38.782 28.212715 3.413264 21.91798 -0.848668
2003-03-24 09:34:48 51°30.219 2°38.867 26.639246 3.412842 21.916299 -0.848668
2003-03-24 09:35:48 51°30.202 2°38.955 28.822499 3.412737 21.917839 -0.848668
2003-03-24 09:36:48 51°30.26 2°39.205 27.177583 3.412421 21.918211 -0.848668
2003-03-24 09:37:48 51°30.435 2°39.42 27.712699 3.412105 21.917603 -0.848668
2003-03-24 09:38:48 51°30.652 2°39.559 27.656514 3.411895 21.918724 -0.882377
2003-03-24 09:39:48 51°30.874 2°39.682 25.799977 3.411579 21.919097 -0.848668
2003-03-24 09:40:48 51°31.098 2°39.811 28.008574 3.411263 21.919143 -0.848668
2003-03-24 09:41:48 51°31.327 2°39.926 28.407398 3.410947 21.918535 -0.882377
2003-03-24 09:42:48 51°31.563 2°39.972 28.080858 3.410736 21.919329 -0.848668
2003-03-24 09:43:48 51°31.802 2°39.926 28.130539 3.410315 21.918301 -0.882377
2003-03-24 09:44:48 51°32.043 2°39.895 26.27657 3.410104 21.919095 -0.848668
2003-03-24 09:45:48 51°32.285 2°39.869 28.863095 3.409788 21.919142 -0.848668
2003-03-24 09:46:48 51°32.52 2°39.843 29.347869 3.409472 21.919188 -0.848668
2003-03-24 09:47:48 51°32.754 2°39.82 27.634122 3.409262 21.919656 -0.848668
2003-03-24 09:48:48 51°32.986 2°39.798 26.894341 3.408946 21.919703 -0.848668
2003-03-24 09:49:48 51°33.218 2°39.773 29.186042 3.408524 21.919002 -0.848668
2003-03-24 09:50:48 51°33.45 2°39.746 24.859865 3.408314 21.91947 -0.882377
2003-03-24 09:51:48 51°33.683 2°39.716 23.500446 3.407998 21.919845 -0.848668
2003-03-24 09:52:48 51°33.917 2°39.678 29.164103 3.407682 21.919237 -0.848668
2003-03-24 09:53:48 51°34.155 2°39.642 25.270846 3.407366 21.919284 -0.848668
2003-03-24 09:54:48 51°34.395 2°39.607 25.315725 3.407155 21.920408 -0.848668
2003-03-24 09:55:48 51°34.631 2°39.575 29.195279 3.406839 21.9198 -0.848668
2003-03-24 09:56:48 51°34.865 2°39.541 22.861873 3.406524 21.919848 -0.848668
2003-03-24 09:57:48 51°35.101 2°39.507 26.006263 3.406102 21.919802 -0.882377
2003-03-24 09:58:48 51°35.336 2°39.477 29.193103 3.405892 21.919616 -0.848668
2003-03-24 09:59:48 51°35.568 2°39.444 29.257307 3.405681 21.920413 -0.848668
2003-03-24 10:00:47 51°35.802 2°39.417 29.187005 3.40526 21.919712 -0.848668
2003-03-24 10:01:48 51°36.036 2°39.407 30.554339 3.405049 21.920181 -0.882377
2003-03-24 10:02:48 51°36.268 2°39.413 27.491789 3.404733 21.919902 -0.848668
2003-03-24 10:03:48 51°36.5 2°39.433 27.821819 3.404628 21.920792 -0.848668
2003-03-24 10:04:48 51°36.733 2°39.457 28.69085 3.404312 21.920841 -0.882377
2003-03-24 10:05:48 51°36.964 2°39.48 28.777649 3.403996 21.920561 -0.848668
2003-03-24 10:06:48 51°37.19 2°39.549 29.642626 3.403785 21.921687 -0.848668
2003-03-24 10:07:47 51°37.403 2°39.664 29.766785 3.403469 21.921408 -0.848668
2003-03-24 10:08:48 51°37.616 2°39.823 29.915859 3.403153 21.920472 -0.882377
2003-03-24 10:09:48 51°37.822 2°39.978 28.400118 3.402943 21.920942 -0.848668
2003-03-24 10:10:47 51°38.016 2°40.157 26.319541 3.402627 21.920663 -0.848668
2003-03-24 10:11:48 51°38.161 2°40.437 30.374535 3.402416 21.921133 -0.848668
2003-03-24 10:12:47 51°38.222 2°40.775 30.219922 3.402206 21.921604 -0.848668
2003-03-24 10:13:47 51°38.258 2°41.122 28.330993 3.401784 21.920575 -0.848668
2003-03-24 10:14:47 51°38.297 2°41.47 27.447995 3.401574 21.920717 -0.848668
2003-03-24 10:15:47 51°38.29 2°41.817 30.479516 3.401469 21.921281 -0.882377
2003-03-24 10:16:48 51°38.193 2°42.147 30.259458 3.401258 21.921424 -0.848668
2003-03-24 10:17:47 51°38.071 2°42.447 28.368286 3.400837 21.920395 -0.882377
2003-03-24 10:18:48 51°37.966 2°42.779 28.048382 3.400731 21.920959 -0.814958
2003-03-24 10:19:48 51°37.878 2°43.114 27.831081 3.400521 21.921758 -0.848668
2003-03-24 10:20:47 51°37.799 2°43.448 28.385736 3.40031 21.921901 -0.814958
2003-03-24 10:21:48 51°37.785 2°43.813 27.070375 3.399994 21.921951 -0.882377
2003-03-24 10:22:48 51°37.851 2°44.156 27.009405 3.399889 21.922515 -0.882377
2003-03-24 10:23:48 51°37.972 2°44.458 26.820378 3.399678 21.923316 -0.814958
2003-03-24 10:24:48 51°38.148 2°44.68 27.633576 3.399362 21.922051 -0.848668
2003-03-24 10:25:48 51°38.341 2°44.867 29.904767 3.399152 21.922523 -0.814958
2003-03-24 10:26:48 51°38.538 2°45.042 28.766746 3.399046 21.923745 -0.814958
2003-03-24 10:27:48 51°38.736 2°45.213 28.554474 3.39873 21.923795 -0.848668
2003-03-24 10:28:48 51°38.951 2°45.322 29.912009 3.398625 21.925018 -0.882377
2003-03-24 10:29:47 51°39.17 2°45.279 27.723756 3.398309 21.924411 -0.848668
2003-03-24 10:30:48 51°39.359 2°45.067 24.222007 3.398099 21.924226 -0.882377
2003-03-24 10:31:48 51°39.495 2°44.765 27.702295 3.397888 21.92404 -0.882377
2003-03-24 10:32:48 51°39.633 2°44.461 28.184164 3.397783 21.925922 -0.882377
2003-03-24 10:33:48 51°39.774 2°44.164 29.515103 3.397467 21.924985 -0.848668
2003-03-24 10:34:48 51°39.897 2°43.845 24.564493 3.397151 21.924707 -0.848668
2003-03-24 10:35:48 51°40.032 2°43.536 28.071699 3.397045 21.925931 -0.848668
2003-03-24 10:36:48 51°40.164 2°43.223 25.567501 3.39673 21.925324 -0.848668
2003-03-24 10:37:48 51°40.294 2°42.914 28.280361 3.396519 21.925468 -0.848668
2003-03-24 10:38:48 51°40.425 2°42.606 25.771527 3.396308 21.925612 -0.882377
2003-03-24 10:39:47 51°40.557 2°42.298 30.313381 3.396098 21.926086 -0.848668
2003-03-24 10:40:47 51°40.689 2°41.986 25.475886 3.395887 21.92623 -0.848668
2003-03-24 10:41:48 51°40.824 2°41.67 30.07141 3.395676 21.926703 -0.848668
2003-03-24 10:42:48 51°40.962 2°41.364 27.405126 3.395466 21.926518 -0.882377
2003-03-24 10:43:48 51°41.098 2°41.055 27.862816 3.39515 21.926241 -0.848668
2003-03-24 10:44:48 51°41.235 2°40.746 28.630364 3.394939 21.927044 -0.848668
2003-03-24 10:45:48 51°41.37 2°40.441 29.104033 3.394729 21.927189 -0.848668
2003-03-24 10:46:48 51°41.505 2°40.137 28.825294 3.394413 21.926911 -0.848668
2003-03-24 10:47:48 51°41.641 2°39.836 29.397502 3.394202 21.927056 -0.848668
2003-03-24 10:48:48 51°41.776 2°39.535 27.546859 3.393886 21.926779 -0.848668
2003-03-24 10:49:48 51°41.911 2°39.234 27.617297 3.393676 21.927253 -0.848668
2003-03-24 10:50:48 51°42.045 2°38.931 27.827485 3.39336 21.926976 -0.814958
2003-03-24 10:51:47 51°42.177 2°38.633 28.274115 3.393149 21.927121 -0.848668
2003-03-24 10:52:48 51°42.31 2°38.319 28.202452 3.392938 21.928255 -0.882377
2003-03-24 10:53:48 51°42.391 2°37.968 28.927616 3.392728 21.928401 -0.848668
2003-03-24 10:54:48 51°42.355 2°37.602 27.532713 3.392517 21.927886 -0.848668
2003-03-24 10:55:48 51°42.276 2°37.242 28.789231 3.392201 21.927939 -0.848668
2003-03-24 10:56:47 51°42.147 2°36.924 29.569843 3.391991 21.928414 -0.882377
2003-03-24 10:57:48 51°41.996 2°36.613 29.03759 3.391569 21.927055 -0.848668
2003-03-24 10:58:48 51°41.838 2°36.317 28.833357 3.391464 21.928283 -0.882377
2003-03-24 10:59:48 51°41.679 2°36.021 28.637586 3.391148 21.927676 -0.814958
2003-03-24 11:00:48 51°41.517 2°35.722 28.767607 3.390832 21.9274 -0.848668
2003-03-24 11:01:48 51°41.351 2°35.436 28.388403 3.390727 21.928297 -0.848668
2003-03-24 11:02:48 51°41.184 2°35.151 28.434747 3.390516 21.928443 -0.882377
2003-03-24 11:03:48 51°41.016 2°34.865 29.352994 3.390306 21.928919 -0.848668
2003-03-24 11:04:48 51°40.849 2°34.58 28.629825 3.38999 21.927982 -0.848668
2003-03-24 11:05:48 51°40.68 2°34.294 28.609557 3.389779 21.928128 -0.848668
2003-03-24 11:06:48 51°40.512 2°34.006 28.374776 3.389568 21.928274 -0.848668
2003-03-24 11:07:47 51°40.346 2°33.724 28.351805 3.389358 21.92875 -0.848668
2003-03-24 11:08:48 51°40.172 2°33.439 28.512631 3.389147 21.928566 -0.848668
2003-03-24 11:09:48 51°39.998 2°33.16 28.783243 3.388937 21.928382 -0.848668
2003-03-24 11:10:48 51°39.82 2°32.892 28.356097 3.388831 21.92895 -0.848668
2003-03-24 11:11:48 51°39.643 2°32.625 27.80649 3.388515 21.928344 -0.848668
2003-03-24 11:12:48 51°39.467 2°32.353 29.098034 3.38841 21.928913 -0.814958
2003-03-24 11:13:48 51°39.289 2°32.082 27.796207 3.388305 21.929481 -0.882377
2003-03-24 11:14:48 51°39.111 2°31.812 26.57334 3.387989 21.928544 -0.848668
2003-03-24 11:15:48 51°38.927 2°31.549 28.256784 3.387884 21.929444 -0.848668
2003-03-24 11:16:48 51°38.747 2°31.284 28.533141 3.387778 21.930343 -0.848668
2003-03-24 11:17:48 51°38.566 2°31.016 28.50914 3.387568 21.929829 -0.848668
2003-03-24 11:18:48 51°38.382 2°30.75 28.871978 3.387357 21.929975 -0.814958
2003-03-24 11:19:48 51°38.196 2°30.488 28.400406 3.387252 21.930545 -0.848668
2003-03-24 11:20:48 51°38.01 2°30.225 28.630903 3.386936 21.929938 -0.848668
2003-03-24 11:21:48 51°37.823 2°29.964 28.482358 3.38683 21.930838 -0.848668
2003-03-24 11:22:48 51°37.635 2°29.704 27.992195 3.38662 21.930654 -0.882377
2003-03-24 11:23:48 51°37.445 2°29.444 28.598953 3.386515 21.931555 -0.882377
2003-03-24 11:24:48 51°37.253 2°29.182 27.949456 3.386199 21.930618 -0.848668
2003-03-24 11:25:48 51°37.062 2°28.927 28.455423 3.386093 21.931518 -0.848668
2003-03-24 11:26:48 51°36.87 2°28.679 28.261767 3.385777 21.930912 -0.848668
2003-03-24 11:27:48 51°36.675 2°28.429 28.928654 3.385672 21.931481 -0.882377
2003-03-24 11:28:48 51°36.476 2°28.179 29.70443 3.385461 21.931298 -0.848668
2003-03-24 11:29:48 51°36.286 2°27.944 28.548431 3.385461 21.932952 -0.848668
2003-03-24 11:30:48 51°36.191 2°27.787 28.713537 3.38504 21.931592 -0.848668
2003-03-24 11:31:48 51°36.152 2°27.672 29.430502 3.384935 21.932494 -0.882377
2003-03-24 11:32:48 51°36.114 2°27.553 28.764558 3.38483 21.933064 -0.848668
2003-03-24 11:33:48 51°35.98 2°27.396 28.987827 3.384514 21.931465 -0.848668
2003-03-24 11:34:48 51°35.847 2°27.243 27.50153 3.384514 21.93312 -0.882377
2003-03-24 11:35:48 51°35.755 2°27.142 28.05012 3.384198 21.932845 -0.848668
2003-03-24 11:36:48 51°35.688 2°27.068 27.645082 3.383987 21.93233 -0.848668
2003-03-24 11:37:48 51°35.636 2°27.018 27.619847 3.383776 21.932478 -0.848668
2003-03-24 11:38:48 51°35.542 2°26.926 28.767679 3.383671 21.932386 -0.848668
2003-03-24 11:39:48 51°35.428 2°26.77 27.606588 3.383461 21.933196 -0.848668
2003-03-24 11:40:48 51°35.368 2°26.661 28.115273 3.38325 21.932682 -0.848668
2003-03-24 11:41:48 51°35.296 2°26.54 28.511119 3.383145 21.933584 -0.848668
2003-03-24 11:42:48 51°35.118 2°26.337 28.157555 3.382934 21.931082 -0.848668
2003-03-24 11:43:48 51°34.995 2°26.184 28.462266 3.382829 21.93364 -0.814958
2003-03-24 11:44:47 51°34.848 2°26.022 28.880036 3.382513 21.933366 -0.848668
2003-03-24 11:45:48 51°34.743 2°25.902 28.360713 3.382513 21.935354 -0.848668
2003-03-24 11:46:47 51°34.669 2°25.836 29.09982 3.382197 21.934085 -0.848668
2003-03-24 11:47:48 51°34.609 2°25.799 27.601306 3.382092 21.934656 -0.848668
2003-03-24 11:48:48 51°34.528 2°25.774 30.013751 3.381881 21.933479 -0.848668
2003-03-24 11:49:48 51°34.362 2°25.706 29.962473 3.38167 21.933627 -0.848668
2003-03-24 11:50:48 51°34.167 2°25.547 28.858617 3.381565 21.934862 -0.848668
2003-03-24 11:51:48 51°33.974 2°25.341 29.4885 3.381354 21.934679 -0.848668
2003-03-24 11:52:48 51°33.785 2°25.119 27.217618 3.381249 21.93525 -0.848668
2003-03-24 11:53:48 51°33.598 2°24.897 28.183369 3.381144 21.935491 -0.848668
2003-03-24 11:54:48 51°33.408 2°24.686 29.908935 3.380933 21.935308 -0.882377
2003-03-24 11:55:48 51°33.216 2°24.475 28.004226 3.380828 21.936543 -0.848668
2003-03-24 11:56:48 51°33.024 2°24.264 28.934237 3.380512 21.935274 -0.848668
2003-03-24 11:57:47 51°32.836 2°24.056 28.793534 3.380407 21.935846 -0.848668
2003-03-24 11:58:48 51°32.629 2°23.894 28.973664 3.380196 21.936326 -0.848668
2003-03-24 11:59:48 51°32.41 2°23.912 29.128238 3.380091 21.936567 -0.848668
2003-03-24 12:00:48 51°32.233 2°24.083 28.689485 3.37988 21.936384 -0.848668
2003-03-24 12:01:48 51°32.139 2°24.214 28.509787 3.37967 21.936533 -0.882377
2003-03-24 12:02:48 51°32.1 2°24.304 28.717054 3.379564 21.937105 -0.848668
2003-03-24 12:03:48 51°32.085 2°24.363 28.224565 3.379354 21.936923 -0.882377
2003-03-24 12:04:48 51°32.081 2°24.403 29.581446 3.379248 21.937163 -0.848668
2003-03-24 12:05:48 51°32.078 2°24.428 28.533213 3.379038 21.936649 -0.848668
2003-03-24 12:06:48 51°32.077 2°24.443 27.706042 3.378932 21.937553 -0.848668
2003-03-24 12:07:48 51°32.083 2°24.456 29.101712 3.378827 21.937794 -0.848668
2003-03-24 12:08:48 51°32.106 2°24.566 28.984107 3.378616 21.937944 -0.848668
2003-03-24 12:09:47 51°32.058 2°24.749 29.037733 3.378511 21.938185 -0.848668
2003-03-24 12:10:48 51°31.908 2°24.895 27.422218 3.378406 21.938093 -0.814958
2003-03-24 12:11:48 51°31.716 2°25.052 28.219869 3.378195 21.937247 -0.814958
2003-03-24 12:12:48 51°31.495 2°25.184 28.848478 3.37809 21.938484 -0.848668
2003-03-24 12:13:48 51°31.269 2°25.323 28.359126 3.377985 21.938725 -0.882377
2003-03-24 12:14:48 51°31.043 2°25.467 29.398462 3.377879 21.938966 -0.848668
2003-03-24 12:15:48 51°30.814 2°25.609 27.660554 3.377669 21.939116 -0.848668
2003-03-24 12:16:48 51°30.585 2°25.757 28.21687 3.377563 21.939689 -0.848668
2003-03-24 12:17:48 51°30.358 2°25.909 28.064024 3.377247 21.939083 -0.848668
2003-03-24 12:18:48 51°30.134 2°26.069 29.126632 3.377142 21.939325 -0.882377
2003-03-24 12:19:48 51°29.91 2°26.224 29.193817 3.377037 21.939898 -0.882377
2003-03-24 12:20:48 51°29.684 2°26.378 28.190923 3.376826 21.939716 -0.848668
2003-03-24 12:21:48 51°29.492 2°26.492 27.440804 3.376721 21.941287 -0.814958
2003-03-24 12:22:48 51°29.351 2°26.572 26.569682 3.37651 21.940772 -0.848668
2003-03-24 12:23:48 51°29.171 2°26.64 27.929692 3.3763 21.94059 -0.848668
2003-03-24 12:24:48 51°28.984 2°26.667 28.091969 3.376089 21.940076 -0.848668
2003-03-24 12:25:48 51°28.794 2°26.684 27.370198 3.375984 21.94065 -0.848668
2003-03-24 12:26:48 51°28.599 2°26.678 28.541164 3.375668 21.940044 -0.848668
2003-03-24 12:27:48 51°28.407 2°26.637 28.784534 3.375668 21.941374 -0.882377
2003-03-24 12:28:48 51°28.219 2°26.545 28.263356 3.375457 21.941192 -0.848668
2003-03-24 12:29:48 51°28.078 2°26.475 28.166703 3.375352 21.942099 -0.848668
2003-03-24 12:30:48 51°27.987 2°26.436 29.16974 3.375141 21.941917 -0.848668
2003-03-24 12:31:48 51°27.887 2°26.406 28.019732 3.374931 21.941403 -0.848668
2003-03-24 12:32:48 51°27.733 2°26.363 27.940717 3.374825 21.941977 -0.848668
2003-03-24 12:33:48 51°27.554 2°26.306 28.003972 3.374615 21.942128 -0.814958
2003-03-24 12:34:48 51°27.426 2°26.256 28.381662 3.374404 21.942279 -0.848668
2003-03-24 12:35:48 51°27.349 2°26.197 28.715367 3.374194 21.942097 -0.882377
2003-03-24 12:36:48 51°27.231 2°26.133 28.068332 3.373983 21.941916 -0.848668
2003-03-24 12:37:48 51°27.055 2°26.097 27.89501 3.374088 21.944336 -0.848668
2003-03-24 12:38:48 51°26.936 2°26.072 28.514142 3.373772 21.943065 -0.848668
2003-03-24 12:39:48 51°26.778 2°26.023 29.702977 3.373562 21.94355 -0.848668
2003-03-24 12:40:48 51°26.59 2°25.974 29.61848 3.373351 21.942702 -0.882377
2003-03-24 12:41:48 51°26.398 2°25.925 28.978635 3.373141 21.942854 -0.848668
2003-03-24 12:42:48 51°26.198 2°25.884 26.609161 3.373035 21.943429 -0.848668
2003-03-24 12:43:48 51°26.019 2°25.824 29.905968 3.372825 21.943913 -0.848668
2003-03-24 12:44:48 51°25.908 2°25.781 30.741163 3.372614 21.943399 -0.848668
2003-03-24 12:45:48 51°25.829 2°25.739 29.746395 3.372403 21.943217 -0.848668
2003-03-24 12:46:48 51°25.768 2°25.7 28.54415 3.372298 21.943793 -0.848668
2003-03-24 12:47:48 51°25.718 2°25.672 30.098831 3.372087 21.943278 -0.848668
2003-03-24 12:48:48 51°25.672 2°25.653 30.357399 3.372087 21.944278 -0.814958
2003-03-24 12:49:48 51°25.641 2°25.625 30.228682 3.371877 21.944096 -0.882377
2003-03-24 12:50:48 51°25.611 2°25.604 28.32688 3.371772 21.945005 -0.848668
2003-03-24 12:51:48 51°25.582 2°25.585 28.134844 3.371561 21.945157 -0.848668
2003-03-24 12:52:48 51°25.513 2°25.561 28.602476 3.371456 21.945733 -0.848668
2003-03-24 12:53:48 51°25.407 2°25.597 29.351962 3.37114 21.946128 -0.848668
2003-03-24 12:54:48 51°25.291 2°25.747 28.319447 3.371034 21.946037 -0.848668
2003-03-24 12:55:48 51°25.164 2°25.925 28.617859 3.370824 21.945523 -0.848668
2003-03-24 12:56:48 51°25.038 2°26.108 28.707363 3.370613 21.945342 -0.848668
2003-03-24 12:57:48 51°24.915 2°26.295 27.84833 3.370508 21.946251 -0.848668
2003-03-24 12:58:48 51°24.796 2°26.487 28.755878 3.370297 21.945737 -0.848668
2003-03-24 12:59:48 51°24.675 2°26.678 28.064603 3.370087 21.945889 -0.848668
2003-03-24 13:00:48 51°24.556 2°26.868 27.207804 3.369981 21.946132 -0.848668
2003-03-24 13:01:48 51°24.438 2°27.06 28.552819 3.369876 21.946375 -0.848668
2003-03-24 13:02:48 51°24.318 2°27.252 29.045416 3.369665 21.946861 -0.848668
2003-03-24 13:03:48 51°24.199 2°27.437 28.769687 3.369455 21.94668 -0.848668
2003-03-24 13:04:48 51°24.078 2°27.618 29.349471 3.36935 21.946924 -0.848668
2003-03-24 13:05:48 51°23.955 2°27.803 28.386096 3.369139 21.947076 -0.848668
2003-03-24 13:06:48 51°23.833 2°27.99 29.584817 3.368823 21.946138 -0.814958
2003-03-24 13:07:48 51°23.716 2°28.18 28.567349 3.368823 21.947472 -0.814958
2003-03-24 13:08:48 51°23.606 2°28.376 30.987496 3.368507 21.9462 -0.848668
2003-03-24 13:09:48 51°23.499 2°28.578 30.554689 3.368507 21.947869 -0.882377
2003-03-24 13:10:48 51°23.394 2°28.781 29.945985 3.368297 21.948022 -0.848668
2003-03-24 13:11:48 51°23.289 2°28.985 31.021482 3.368086 21.947507 -0.814958
2003-03-24 13:12:48 51°23.184 2°29.188 29.203909 3.367981 21.948418 -0.848668
2003-03-24 13:13:48 51°23.078 2°29.383 31.032796 3.367875 21.948996 -0.848668
2003-03-24 13:14:48 51°22.974 2°29.581 30.086144 3.367559 21.948391 -0.814958
2003-03-24 13:15:48 51°22.87 2°29.78 31.183338 3.367349 21.947877 -0.848668
2003-03-24 13:16:48 51°22.767 2°29.981 31.327828 3.367138 21.947696 -0.848668
2003-03-24 13:17:48 51°22.667 2°30.181 29.318287 3.367243 21.94979 -0.848668
2003-03-24 13:18:48 51°22.566 2°30.381 27.608737 3.366928 21.948851 -0.848668
2003-03-24 13:19:48 51°22.465 2°30.582 28.681371 3.366717 21.948671 -0.848668
2003-03-24 13:20:48 51°22.363 2°30.781 28.61254 3.366506 21.94849 -0.848668
2003-03-24 13:21:48 51°22.264 2°30.983 28.205343 3.366506 21.949493 -0.882377
2003-03-24 13:22:48 51°22.169 2°31.189 28.30375 3.36619 21.948888 -0.882377
2003-03-24 13:23:48 51°22.074 2°31.394 27.969216 3.366085 21.9498 -0.814958
2003-03-24 13:24:48 51°21.98 2°31.601 28.423182 3.36598 21.950378 -0.848668
2003-03-24 13:25:48 51°21.885 2°31.809 29.577118 3.365769 21.949864 -0.882377
2003-03-24 13:26:48 51°21.788 2°32.019 30.501287 3.365559 21.950018 -0.848668
2003-03-24 13:27:48 51°21.69 2°32.229 30.512258 3.365453 21.950262 -0.814958
2003-03-24 13:28:48 51°21.59 2°32.443 29.711302 3.365243 21.950082 -0.848668
2003-03-24 13:29:48 51°21.487 2°32.66 28.829774 3.365137 21.95066 -0.848668
2003-03-24 13:30:48 51°21.388 2°32.884 29.860804 3.364927 21.95048 -0.882377
2003-03-24 13:31:48 51°21.289 2°33.109 27.478398 3.364716 21.9503 -0.882377
2003-03-24 13:32:48 51°21.19 2°33.33 27.315034 3.364611 21.950878 -0.848668
2003-03-24 13:33:48 51°21.113 2°33.459 27.351486 3.3644 21.950698 -0.848668
2003-03-24 13:34:48 51°21.036 2°33.559 27.394605 3.364295 21.951612 -0.848668
2003-03-24 13:35:48 51°20.952 2°33.763 28.66715 3.36419 21.951187 -0.848668
2003-03-24 13:36:48 51°20.876 2°34.033 28.077165 3.363979 21.951007 -0.814958
2003-03-24 13:37:48 51°20.847 2°34.356 27.668963 3.363874 21.951252 -0.848668
2003-03-24 13:38:48 51°20.816 2°34.691 28.757062 3.363768 21.952165 -0.848668
2003-03-24 13:39:48 51°20.78 2°34.931 27.591761 3.363663 21.95241 -0.848668
2003-03-24 13:40:48 51°20.732 2°35.031 27.180661 3.363452 21.951895 -0.848668
2003-03-24 13:41:48 51°20.694 2°35.199 27.290088 3.363242 21.951046 -0.848668
2003-03-24 13:42:48 51°20.662 2°35.441 27.850509 3.363137 21.951626 -0.848668
2003-03-24 13:43:48 51°20.631 2°35.693 28.445914 3.363031 21.951201 -0.882377
2003-03-24 13:44:48 51°20.592 2°35.944 29.060566 3.363031 21.952539 -0.848668
2003-03-24 13:45:48 51°20.551 2°36.196 29.089714 3.362926 21.95245 -0.882377
2003-03-24 13:46:48 51°20.511 2°36.449 28.957459 3.362715 21.9516 -0.848668
2003-03-24 13:47:48 51°20.47 2°36.7 28.191068 3.36261 21.951845 -0.848668
2003-03-24 13:48:48 51°20.429 2°36.955 27.186596 3.362505 21.95209 -0.848668
2003-03-24 13:49:48 51°20.39 2°37.207 27.51302 3.362399 21.952335 -0.814958
2003-03-24 13:50:48 51°20.348 2°37.359 27.947063 3.362294 21.95258 -0.848668
2003-03-24 13:51:48 51°20.301 2°37.475 28.656375 3.362189 21.953159 -0.848668
2003-03-24 13:52:48 51°20.268 2°37.691 28.145369 3.362084 21.952735 -0.848668
2003-03-24 13:53:48 51°20.226 2°37.978 28.440835 3.362084 21.95307 -0.848668
2003-03-24 13:54:48 51°20.196 2°38.302 27.834349 3.361978 21.953315 -0.848668
2003-03-24 13:55:48 51°20.202 2°38.643 28.127935 3.362084 21.954074 -0.848668
2003-03-24 13:56:48 51°20.213 2°38.997 27.880566 3.361873 21.953894 -0.848668
2003-03-24 13:57:48 51°20.22 2°39.348 27.986143 3.361768 21.95347 -0.882377
2003-03-24 13:58:48 51°20.218 2°39.702 27.499304 3.361662 21.95338 -0.814958
2003-03-24 13:59:48 51°20.212 2°39.992 26.335775 3.361557 21.953625 -0.848668
2003-03-24 14:00:48 51°20.21 2°40.22 26.539126 3.361557 21.95396 -0.848668
2003-03-24 14:01:48 51°20.204 2°40.478 28.786291 3.361452 21.95387 -0.882377
2003-03-24 14:02:47 51°20.202 2°40.744 27.061128 3.361346 21.954115 -0.814958
2003-03-24 14:03:48 51°20.199 2°41.026 28.353068 3.361241 21.953691 -0.848668
2003-03-24 14:04:48 51°20.193 2°41.305 26.374675 3.361136 21.953936 -0.848668
2003-03-24 14:05:48 51°20.187 2°41.576 26.593025 3.361241 21.955365 -0.848668
2003-03-24 14:06:47 51°20.182 2°41.847 28.425344 3.361031 21.954516 -0.814958
2003-03-24 14:07:48 51°20.176 2°42.127 28.160267 3.361031 21.955186 -0.848668
2003-03-24 14:08:48 51°20.172 2°42.406 28.135205 3.360925 21.955096 -0.848668
2003-03-24 14:09:48 51°20.161 2°42.676 27.786578 3.36082 21.955007 -0.814958
2003-03-24 14:10:47 51°20.15 2°42.938 26.25654 3.360715 21.954917 -0.848668
2003-03-24 14:11:48 51°20.126 2°43.109 27.709607 3.360609 21.955497 -0.848668
2003-03-24 14:12:47 51°20.089 2°43.198 28.603267 3.360504 21.954402 -0.882377
2003-03-24 14:13:48 51°20.058 2°43.349 26.395006 3.360504 21.955743 -0.814958
2003-03-24 14:14:48 51°20.056 2°43.592 27.419589 3.360504 21.955743 -0.848668
2003-03-24 14:15:48 51°20.055 2°43.882 26.968119 3.360399 21.955653 -0.848668
2003-03-24 14:16:48 51°20.054 2°44.216 28.015023 3.360399 21.956323 -0.882377
2003-03-24 14:17:48 51°20.054 2°44.574 27.038447 3.360293 21.955563 -0.882377
2003-03-24 14:18:48 51°20.049 2°44.877 27.940608 3.360293 21.956569 -0.848668
2003-03-24 14:19:48 51°20.03 2°45.056 28.126198 3.360083 21.955719 -0.882377
2003-03-24 14:20:48 51°20.035 2°45.314 28.271552 3.360188 21.956479 -0.848668
2003-03-24 14:21:48 51°20.039 2°45.592 28.099641 3.359977 21.9563 -0.814958
2003-03-24 14:22:48 51°20.039 2°45.873 28.164642 3.360083 21.956725 -0.848668
2003-03-24 14:23:48 51°20.037 2°46.157 28.141607 3.359978 21.956971 -0.882377
2003-03-24 14:24:48 51°20.022 2°46.44 28.469216 3.359978 21.956971 -0.848668
2003-03-24 14:25:47 51°19.996 2°46.718 27.940899 3.359767 21.956456 -0.848668
2003-03-24 14:26:48 51°19.97 2°47 28.744434 3.359767 21.956791 -0.848668
2003-03-24 14:27:47 51°19.945 2°47.272 27.77055 3.359767 21.957127 -0.848668
2003-03-24 14:28:48 51°19.92 2°47.557 28.749959 3.359662 21.957372 -0.882377
2003-03-24 14:29:48 51°19.897 2°47.835 28.25162 3.359662 21.957708 -0.882377
2003-03-24 14:30:48 51°19.875 2°48.111 28.731337 3.359556 21.957283 -0.848668
2003-03-24 14:31:47 51°19.854 2°48.384 28.167499 3.359556 21.957618 -0.882377
2003-03-24 14:32:48 51°19.832 2°48.668 28.752362 3.359556 21.957953 -0.882377
2003-03-24 14:33:48 51°19.81 2°48.948 28.204765 3.359451 21.957193 -0.848668
2003-03-24 14:34:48 51°19.788 2°49.231 27.941914 3.359346 21.957104 -0.882377
2003-03-24 14:35:47 51°19.765 2°49.512 27.261475 3.35924 21.956679 -0.848668
2003-03-24 14:36:48 51°19.741 2°49.802 28.77894 3.359346 21.957774 -0.848668
2003-03-24 14:37:48 51°19.719 2°50.086 28.27852 3.359451 21.959205 -0.882377
2003-03-24 14:38:48 51°19.698 2°50.376 27.928096 3.35924 21.957685 -0.848668
2003-03-24 14:39:47 51°19.674 2°50.658 28.470872 3.359135 21.957595 -0.848668
2003-03-24 14:40:47 51°19.65 2°50.946 26.803331 3.35924 21.959026 -0.848668
2003-03-24 14:41:48 51°19.625 2°51.239 28.41511 3.359135 21.958266 -0.848668
2003-03-24 14:42:48 51°19.6 2°51.526 29.726212 3.35924 21.959362 -0.848668
2003-03-24 14:43:47 51°19.58 2°51.807 30.171248 3.358924 21.958087 -0.848668
2003-03-24 14:44:48 51°19.605 2°52.091 29.146333 3.359135 21.959608 -0.848668
2003-03-24 14:45:48 51°19.648 2°52.366 28.211667 3.35903 21.959183 -0.848668
2003-03-24 14:46:48 51°19.684 2°52.645 28.54379 3.35903 21.959518 -0.848668
2003-03-24 14:47:48 51°19.723 2°52.93 27.599302 3.35903 21.960189 -0.882377
2003-03-24 14:48:48 51°19.761 2°53.212 27.63161 3.358925 21.959429 -0.848668
2003-03-24 14:49:48 51°19.798 2°53.495 27.610012 3.358925 21.9601 -0.848668
2003-03-24 14:50:47 51°19.834 2°53.774 27.193959 3.358925 21.959764 -0.848668
2003-03-24 14:51:47 51°19.866 2°54.064 27.761027 3.358819 21.959339 -0.848668
2003-03-24 14:52:48 51°19.92 2°54.336 27.656586 3.358819 21.961017 -0.848668
2003-03-24 14:53:48 51°20.068 2°54.398 27.414622 3.358925 21.962113 -0.848668
2003-03-24 14:54:48 51°20.156 2°54.213 28.627095 3.35903 21.962202 -0.848668
2003-03-24 14:55:47 51°20.083 2°54.018 27.474092 3.35903 21.962202 -0.848668
2003-03-24 14:56:48 51°19.927 2°53.921 27.68261 3.358819 21.961352 -0.882377
2003-03-24 14:57:48 51°19.774 2°53.8 29.045774 3.358819 21.962694 -0.814958
2003-03-24 14:58:48 51°19.622 2°53.676 27.895264 3.358714 21.961263 -0.848668
2003-03-24 14:59:48 51°19.471 2°53.551 28.303137 3.358714 21.960927 -0.848668
2003-03-24 15:00:48 51°19.321 2°53.422 28.284476 3.358609 21.960838 -0.848668
2003-03-24 15:01:48 51°19.173 2°53.289 28.229912 3.358503 21.960413 -0.848668
2003-03-24 15:02:48 51°19.027 2°53.159 27.870766 3.358609 21.961509 -0.848668
2003-03-24 15:03:48 51°18.88 2°53.036 27.15699 3.358609 21.961509 -0.916087
2003-03-24 15:04:48 51°18.727 2°52.926 28.086613 3.358503 21.961084 -0.882377
2003-03-24 15:05:48 51°18.575 2°52.813 28.865638 3.358398 21.960995 -0.848668
2003-03-24 15:06:48 51°18.42 2°52.712 28.485706 3.358503 21.961755 -0.848668
2003-03-24 15:07:48 51°18.259 2°52.638 28.030056 3.358398 21.961666 -0.848668
2003-03-24 15:08:48 51°18.089 2°52.599 28.279134 3.358503 21.962091 -0.848668
2003-03-24 15:09:48 51°17.92 2°52.565 28.424551 3.358503 21.962427 -0.882377
2003-03-24 15:10:47 51°17.755 2°52.53 28.452001 3.358503 21.962427 -0.882377
2003-03-24 15:11:48 51°17.579 2°52.531 29.233429 3.358293 21.961577 -0.848668
2003-03-24 15:12:48 51°17.41 2°52.537 30.410762 3.358293 21.961912 -0.848668
2003-03-24 15:13:48 51°17.241 2°52.547 29.120778 3.358187 21.961487 -0.848668
2003-03-24 15:14:48 51°17.073 2°52.582 28.906425 3.358398 21.963344 -0.848668
2003-03-24 15:15:48 51°16.908 2°52.683 29.55224 3.358187 21.961823 -0.882377
2003-03-24 15:16:48 51°16.749 2°52.8 28.945437 3.358293 21.963255 -0.848668
2003-03-24 15:17:48 51°16.592 2°52.946 27.962727 3.358187 21.96283 -0.848668
2003-03-24 15:18:48 51°16.447 2°53.128 28.868682 3.358082 21.962405 -0.882377
2003-03-24 15:19:48 51°16.301 2°53.305 28.924896 3.357977 21.96198 -0.814958
2003-03-24 15:20:48 51°16.177 2°53.532 29.260265 3.358082 21.963076 -0.848668
2003-03-24 15:21:48 51°16.091 2°53.803 29.3911 3.358082 21.963076 -0.848668
2003-03-24 15:22:48 51°16.003 2°54.076 29.739774 3.358082 21.963412 -0.848668
2003-03-24 15:23:48 51°15.913 2°54.345 29.334877 3.357977 21.963323 -0.848668
2003-03-24 15:24:48 51°15.797 2°54.572 29.81632 3.357766 21.962137 -0.882377
2003-03-24 15:25:48 51°15.647 2°54.682 28.887234 3.357872 21.963233 -0.848668
2003-03-24 15:26:48 51°15.538 2°54.76 27.501712 3.357977 21.963994 -0.848668
2003-03-24 15:27:48 51°15.448 2°54.807 27.46245 3.357872 21.963233 -0.882377
2003-03-24 15:28:48 51°15.347 2°54.852 29.22195 3.357766 21.962808 -0.848668
2003-03-24 15:29:48 51°15.233 2°54.924 28.653286 3.357872 21.963569 -0.882377
2003-03-24 15:30:48 51°15.125 2°54.982 27.799369 3.357977 21.96433 -0.848668
2003-03-24 15:31:48 51°15.038 2°55.021 27.767752 3.357766 21.963816 -0.882377
2003-03-24 15:32:48 51°14.958 2°55.049 27.798787 3.357977 21.965001 -0.848668
2003-03-24 15:33:48 51°14.853 2°55.039 28.724089 3.357766 21.964151 -0.848668
2003-03-24 15:34:48 51°14.728 2°55.026 27.53975 3.357766 21.964487 -0.848668
2003-03-24 15:35:48 51°14.64 2°55.024 27.756228 3.357766 21.964823 -0.814958
2003-03-24 15:36:48 51°14.566 2°55.05 27.720992 3.357766 21.964823 -0.848668
2003-03-24 15:37:48 51°14.48 2°55.062 26.984541 3.357661 21.963726 -0.848668
2003-03-24 15:38:48 51°14.357 2°55.098 27.770078 3.357661 21.966413 -0.814958
2003-03-24 15:39:48 51°14.289 2°55.211 27.770769 3.357872 21.965584 -0.848668
2003-03-24 15:40:48 51°14.244 2°55.3 28.040161 3.357661 21.96507 -0.848668
2003-03-24 15:41:48 51°14.196 2°55.366 28.546272 3.357661 21.96507 -0.848668
2003-03-24 15:42:48 51°14.142 2°55.417 27.961929 3.357766 21.96583 -0.848668
2003-03-24 15:43:48 51°14.083 2°55.459 28.061743 3.357766 21.966166 -0.848668
2003-03-24 15:44:48 51°14.024 2°55.504 27.442665 3.357766 21.96583 -0.848668
2003-03-24 15:45:48 51°13.964 2°55.543 28.599744 3.357661 21.965405 -0.848668
2003-03-24 15:46:48 51°13.899 2°55.585 28.497082 3.357661 21.965741 -0.882377
2003-03-24 15:47:48 51°13.833 2°55.628 28.493842 3.357766 21.966838 -0.848668
2003-03-24 15:48:48 51°13.772 2°55.676 28.118348 3.357661 21.966413 -0.814958
2003-03-24 15:49:48 51°13.721 2°55.743 28.468892 3.357661 21.966413 -0.882377
2003-03-24 15:50:48 51°13.682 2°55.827 28.743824 3.357661 21.966077 -0.848668
2003-03-24 15:51:48 51°13.65 2°55.917 28.984715 3.357661 21.966413 -0.848668
2003-03-24 15:52:48 51°13.623 2°55.991 27.566288 3.357661 21.967085 -0.882377
2003-03-24 15:53:48 51°13.61 2°56.057 28.963827 3.357661 21.967085 -0.848668
2003-03-24 15:54:48 51°13.603 2°56.091 28.622351 3.357556 21.966324 -0.848668
2003-03-24 15:55:48 51°13.6 2°56.1 28.160737 3.357556 21.96666 -0.814958
2003-03-24 15:56:48 51°13.601 2°56.101 28.758568 3.357661 21.967421 -0.882377
2003-03-24 15:57:48 51°13.601 2°56.102 29.002845 3.357556 21.966996 -0.848668
2003-03-24 15:58:48 51°13.601 2°56.102 25.099344 3.357556 21.96666 -0.848668
2003-03-24 15:59:48 51°13.6 2°56.103 27.920152 3.357556 21.96666 -0.848668
2003-03-24 16:00:48 51°13.6 2°56.103 27.781345 3.357556 21.96666 -0.848668
2003-03-24 16:01:48 51°13.601 2°56.103 28.881397 3.357556 21.96666 -0.848668
2003-03-24 16:02:48 51°13.601 2°56.103 28.882865 3.357556 21.96666 -0.882377
2003-03-24 16:03:51 51°13.6 2°56.103 28.270144 3.357556 21.966996 -0.882377